Chicago Rockford International Airport
KRFD : rendu visible

Aérodrome :











RETROUVEZ-NOUS SUR...

 
LOGIN :

S'inscrire | Disclaimer

   EN    FR    IT 

 









Légende :    VFR   VFR Marginal   IFR   IFR Intensif   IFR Très Intensif
Visi : 
Plafond : 
>= 8 km
>= 3000ft
5 à 8 km
1000 à 3000 ft
1500m à 5 km
500 à 1000 ft
800 à 1500m
200 à 500 ft
< 800m
< 200 ft
Symboles :   Orages  Brouillard  Fortes neiges  Fortes précipitations  Vent > 20 kt






- Altitude de l'aérodrome : 742 ft
- Code IATA : RFD


KRFD - Chicago Rockford International

DERNIER METAR :
  • 191154Z 06004KT 7SM -RA OVC027 02/00 A2976 RMK AO2 RAB54 SLP083 P0000 60000 T00170000 10017 20011 53002

METARs EXPIRÉS :
  • 191130Z 04004KT 8SM BKN027 OVC090 02/00 A2976 RMK AO2 T00170000
  • 191054Z 06005KT 8SM OVC090 01/M01 A2974 RMK AO2 SLP077 T00111006
  • 191010Z 11003KT 9SM SCT013 OVC090 01/M01 A2974 RMK AO2 T00111006
  • 190954Z 10003KT 9SM OVC014 01/M01 A2974 RMK AO2 SLP077 T00111006

TAF COR TAF KRFD
Valide du 19 à 12h jusqu'au 20 à 12h UTC


191200Z 1912/2012 VRB03KT 6SM -RA OVC025
FM191245 VRB03KT 4SM -RASN BR SCT008 OVC015
TEMPO 1913/1916 2SM -SN BR BKN008
FM191600 VRB03KT 6SM BR OVC013
TEMPO 1916/1918 4SM BR
FM192200 27003KT P6SM SCT008 OVC010



MET'MAP, la Météo Aéronautique d'un coup d'oeil ! - Copyright ORBIFLY Décembre 2007 - Disclaimer

ORBIFLY MET'MAP TEAM :

Programmation & Développement : Alexandra Zaïnal
Conception & Développement : Baudouin d'Aumeries
Co-Programmation & Développement : Marc-Olivier Méhu
Soutien technique & logistique : Manuel Goepfert

Contact : metmap@orbifly.com




SOURCES & CREDITS :

   NOAA       Earth
Advisory